sensor_id;sensor_type;location;lat;lon;timestamp;P1;durP1;ratioP1;P2;durP2;ratioP2
21237;SDS011;10777;50.828;3.264;2022-07-09T00:00:06;16.10;;;8.70;;
21237;SDS011;10777;50.828;3.264;2022-07-09T00:02:32;14.88;;;9.23;;
21237;SDS011;10777;50.828;3.264;2022-07-09T00:04:59;14.93;;;8.98;;
21237;SDS011;10777;50.828;3.264;2022-07-09T00:07:25;17.67;;;10.70;;
21237;SDS011;10777;50.828;3.264;2022-07-09T00:09:51;12.70;;;9.63;;
21237;SDS011;10777;50.828;3.264;2022-07-09T00:12:17;17.85;;;10.75;;
21237;SDS011;10777;50.828;3.264;2022-07-09T00:14:43;14.50;;;9.95;;
21237;SDS011;10777;50.828;3.264;2022-07-09T00:17:09;14.70;;;9.50;;
21237;SDS011;10777;50.828;3.264;2022-07-09T00:19:34;15.48;;;9.40;;
21237;SDS011;10777;50.828;3.264;2022-07-09T00:22:00;23.35;;;10.80;;
21237;SDS011;10777;50.828;3.264;2022-07-09T00:24:26;17.90;;;10.32;;
21237;SDS011;10777;50.828;3.264;2022-07-09T00:26:52;19.83;;;11.63;;
21237;SDS011;10777;50.828;3.264;2022-07-09T00:29:17;16.27;;;10.48;;
21237;SDS011;10777;50.828;3.264;2022-07-09T00:31:43;17.38;;;10.70;;
21237;SDS011;10777;50.828;3.264;2022-07-09T00:34:10;24.90;;;10.95;;
21237;SDS011;10777;50.828;3.264;2022-07-09T00:36:36;20.05;;;11.30;;
21237;SDS011;10777;50.828;3.264;2022-07-09T00:39:02;30.70;;;21.35;;
21237;SDS011;10777;50.828;3.264;2022-07-09T00:41:28;58.00;;;38.50;;
21237;SDS011;10777;50.828;3.264;2022-07-09T00:43:54;130.02;;;85.18;;
21237;SDS011;10777;50.828;3.264;2022-07-09T00:46:20;232.88;;;151.73;;
21237;SDS011;10777;50.828;3.264;2022-07-09T00:48:45;323.15;;;212.00;;
21237;SDS011;10777;50.828;3.264;2022-07-09T00:51:11;405.45;;;273.88;;
21237;SDS011;10777;50.828;3.264;2022-07-09T00:53:38;377.13;;;255.88;;
21237;SDS011;10777;50.828;3.264;2022-07-09T00:56:05;345.27;;;233.17;;
21237;SDS011;10777;50.828;3.264;2022-07-09T00:58:31;328.27;;;220.53;;
21237;SDS011;10777;50.828;3.264;2022-07-09T01:00:58;284.58;;;186.30;;
21237;SDS011;10777;50.828;3.264;2022-07-09T01:03:24;278.25;;;182.57;;
21237;SDS011;10777;50.828;3.264;2022-07-09T01:05:50;284.98;;;193.50;;
21237;SDS011;10777;50.828;3.264;2022-07-09T01:08:16;337.45;;;232.23;;
21237;SDS011;10777;50.828;3.264;2022-07-09T01:10:41;348.17;;;239.33;;
21237;SDS011;10777;50.828;3.264;2022-07-09T01:13:07;250.30;;;166.27;;
21237;SDS011;10777;50.828;3.264;2022-07-09T01:15:33;125.53;;;83.67;;
21237;SDS011;10777;50.828;3.264;2022-07-09T01:17:59;75.05;;;48.75;;
21237;SDS011;10777;50.828;3.264;2022-07-09T01:20:25;40.00;;;27.95;;
21237;SDS011;10777;50.828;3.264;2022-07-09T01:22:52;36.85;;;25.17;;
21237;SDS011;10777;50.828;3.264;2022-07-09T01:25:18;27.30;;;21.07;;
21237;SDS011;10777;50.828;3.264;2022-07-09T01:27:44;36.10;;;21.48;;
21237;SDS011;10777;50.828;3.264;2022-07-09T01:30:14;21.58;;;18.13;;
21237;SDS011;10777;50.828;3.264;2022-07-09T01:32:49;31.77;;;20.15;;
21237;SDS011;10777;50.828;3.264;2022-07-09T01:35:15;33.07;;;23.43;;
21237;SDS011;10777;50.828;3.264;2022-07-09T01:37:41;48.57;;;37.20;;
21237;SDS011;10777;50.828;3.264;2022-07-09T01:40:07;52.93;;;40.70;;
21237;SDS011;10777;50.828;3.264;2022-07-09T01:42:33;54.50;;;33.50;;
21237;SDS011;10777;50.828;3.264;2022-07-09T01:44:58;36.67;;;27.27;;
21237;SDS011;10777;50.828;3.264;2022-07-09T01:47:24;28.10;;;22.58;;
21237;SDS011;10777;50.828;3.264;2022-07-09T01:49:50;27.90;;;19.37;;
21237;SDS011;10777;50.828;3.264;2022-07-09T01:52:16;25.13;;;18.20;;
21237;SDS011;10777;50.828;3.264;2022-07-09T01:54:41;32.07;;;19.30;;
21237;SDS011;10777;50.828;3.264;2022-07-09T01:57:07;36.67;;;19.87;;
21237;SDS011;10777;50.828;3.264;2022-07-09T01:59:33;23.60;;;18.90;;
21237;SDS011;10777;50.828;3.264;2022-07-09T02:01:58;24.67;;;19.60;;
21237;SDS011;10777;50.828;3.264;2022-07-09T02:04:24;22.43;;;19.53;;
21237;SDS011;10777;50.828;3.264;2022-07-09T02:06:50;25.80;;;18.90;;
21237;SDS011;10777;50.828;3.264;2022-07-09T02:09:15;27.87;;;19.57;;
21237;SDS011;10777;50.828;3.264;2022-07-09T02:11:42;25.37;;;19.47;;
21237;SDS011;10777;50.828;3.264;2022-07-09T02:14:08;30.27;;;20.25;;
21237;SDS011;10777;50.828;3.264;2022-07-09T02:16:33;27.83;;;20.77;;
21237;SDS011;10777;50.828;3.264;2022-07-09T02:18:59;31.80;;;23.67;;
21237;SDS011;10777;50.828;3.264;2022-07-09T02:21:25;33.03;;;23.50;;
21237;SDS011;10777;50.828;3.264;2022-07-09T02:23:50;36.72;;;24.52;;
21237;SDS011;10777;50.828;3.264;2022-07-09T02:26:17;36.25;;;23.77;;
21237;SDS011;10777;50.828;3.264;2022-07-09T02:28:43;37.57;;;24.30;;
21237;SDS011;10777;50.828;3.264;2022-07-09T02:31:09;34.50;;;24.52;;
21237;SDS011;10777;50.828;3.264;2022-07-09T02:33:34;33.97;;;25.03;;
21237;SDS011;10777;50.828;3.264;2022-07-09T02:36:00;42.80;;;25.90;;
21237;SDS011;10777;50.828;3.264;2022-07-09T02:38:25;39.47;;;25.23;;
21237;SDS011;10777;50.828;3.264;2022-07-09T02:40:51;45.50;;;25.23;;
21237;SDS011;10777;50.828;3.264;2022-07-09T02:43:17;39.22;;;25.13;;
21237;SDS011;10777;50.828;3.264;2022-07-09T02:45:42;38.60;;;24.90;;
21237;SDS011;10777;50.828;3.264;2022-07-09T02:48:08;34.72;;;24.63;;
21237;SDS011;10777;50.828;3.264;2022-07-09T02:50:34;36.83;;;24.75;;
21237;SDS011;10777;50.828;3.264;2022-07-09T02:52:59;37.85;;;24.40;;
21237;SDS011;10777;50.828;3.264;2022-07-09T02:55:25;35.53;;;25.30;;
21237;SDS011;10777;50.828;3.264;2022-07-09T02:57:51;35.13;;;24.87;;
21237;SDS011;10777;50.828;3.264;2022-07-09T03:00:17;36.53;;;24.93;;
21237;SDS011;10777;50.828;3.264;2022-07-09T03:02:42;35.47;;;24.33;;
21237;SDS011;10777;50.828;3.264;2022-07-09T03:05:08;36.07;;;25.30;;
21237;SDS011;10777;50.828;3.264;2022-07-09T03:07:34;39.73;;;24.70;;
21237;SDS011;10777;50.828;3.264;2022-07-09T03:09:59;36.70;;;26.57;;
21237;SDS011;10777;50.828;3.264;2022-07-09T03:12:25;35.90;;;26.37;;
21237;SDS011;10777;50.828;3.264;2022-07-09T03:14:51;37.13;;;26.60;;
21237;SDS011;10777;50.828;3.264;2022-07-09T03:17:16;34.97;;;25.83;;
21237;SDS011;10777;50.828;3.264;2022-07-09T03:19:42;34.07;;;25.00;;
21237;SDS011;10777;50.828;3.264;2022-07-09T03:22:08;37.03;;;26.53;;
21237;SDS011;10777;50.828;3.264;2022-07-09T03:24:33;37.63;;;26.80;;
21237;SDS011;10777;50.828;3.264;2022-07-09T03:26:59;36.43;;;24.80;;
21237;SDS011;10777;50.828;3.264;2022-07-09T03:29:25;36.67;;;25.73;;
21237;SDS011;10777;50.828;3.264;2022-07-09T03:31:50;39.47;;;26.53;;
21237;SDS011;10777;50.828;3.264;2022-07-09T03:34:16;35.95;;;26.33;;
21237;SDS011;10777;50.828;3.264;2022-07-09T03:36:42;39.33;;;25.95;;
21237;SDS011;10777;50.828;3.264;2022-07-09T03:39:07;40.23;;;26.27;;
21237;SDS011;10777;50.828;3.264;2022-07-09T03:41:33;42.25;;;25.42;;
21237;SDS011;10777;50.828;3.264;2022-07-09T03:43:59;39.63;;;25.00;;
21237;SDS011;10777;50.828;3.264;2022-07-09T03:46:24;38.90;;;23.77;;
21237;SDS011;10777;50.828;3.264;2022-07-09T03:48:50;34.50;;;25.60;;
21237;SDS011;10777;50.828;3.264;2022-07-09T03:51:16;45.80;;;25.42;;
21237;SDS011;10777;50.828;3.264;2022-07-09T03:53:42;34.87;;;25.33;;
21237;SDS011;10777;50.828;3.264;2022-07-09T03:56:07;42.47;;;26.20;;
21237;SDS011;10777;50.828;3.264;2022-07-09T03:58:33;40.27;;;27.00;;
21237;SDS011;10777;50.828;3.264;2022-07-09T04:00:59;37.40;;;26.45;;
21237;SDS011;10777;50.828;3.264;2022-07-09T04:03:24;41.87;;;28.90;;
21237;SDS011;10777;50.828;3.264;2022-07-09T04:05:50;41.35;;;27.52;;
21237;SDS011;10777;50.828;3.264;2022-07-09T04:08:16;44.50;;;29.03;;
21237;SDS011;10777;50.828;3.264;2022-07-09T04:10:41;43.47;;;28.53;;
21237;SDS011;10777;50.828;3.264;2022-07-09T04:13:07;42.55;;;28.83;;
21237;SDS011;10777;50.828;3.264;2022-07-09T04:15:33;41.22;;;28.65;;
21237;SDS011;10777;50.828;3.264;2022-07-09T04:17:59;45.60;;;29.57;;
21237;SDS011;10777;50.828;3.264;2022-07-09T04:20:25;41.37;;;29.20;;
21237;SDS011;10777;50.828;3.264;2022-07-09T04:22:51;38.00;;;29.20;;
21237;SDS011;10777;50.828;3.264;2022-07-09T04:25:17;43.80;;;29.05;;
21237;SDS011;10777;50.828;3.264;2022-07-09T04:27:43;44.00;;;29.17;;
21237;SDS011;10777;50.828;3.264;2022-07-09T04:30:09;44.57;;;27.83;;
21237;SDS011;10777;50.828;3.264;2022-07-09T04:32:36;46.27;;;27.97;;
21237;SDS011;10777;50.828;3.264;2022-07-09T04:35:02;39.27;;;28.13;;
21237;SDS011;10777;50.828;3.264;2022-07-09T04:37:28;34.07;;;27.03;;
21237;SDS011;10777;50.828;3.264;2022-07-09T04:39:54;40.38;;;28.27;;
21237;SDS011;10777;50.828;3.264;2022-07-09T04:42:20;38.17;;;28.75;;
21237;SDS011;10777;50.828;3.264;2022-07-09T04:44:45;43.77;;;27.47;;
21237;SDS011;10777;50.828;3.264;2022-07-09T04:47:11;37.83;;;28.25;;
21237;SDS011;10777;50.828;3.264;2022-07-09T04:49:37;35.17;;;26.90;;
21237;SDS011;10777;50.828;3.264;2022-07-09T04:52:03;37.22;;;27.35;;
21237;SDS011;10777;50.828;3.264;2022-07-09T04:54:29;38.97;;;26.97;;
21237;SDS011;10777;50.828;3.264;2022-07-09T04:56:55;36.27;;;26.17;;
21237;SDS011;10777;50.828;3.264;2022-07-09T04:59:22;42.03;;;27.23;;
21237;SDS011;10777;50.828;3.264;2022-07-09T05:01:47;39.60;;;26.63;;
21237;SDS011;10777;50.828;3.264;2022-07-09T05:04:15;39.43;;;26.83;;
21237;SDS011;10777;50.828;3.264;2022-07-09T05:06:40;35.45;;;25.77;;
21237;SDS011;10777;50.828;3.264;2022-07-09T05:09:07;39.38;;;26.85;;
21237;SDS011;10777;50.828;3.264;2022-07-09T05:11:32;39.15;;;26.65;;
21237;SDS011;10777;50.828;3.264;2022-07-09T05:13:58;35.05;;;26.08;;
21237;SDS011;10777;50.828;3.264;2022-07-09T05:16:24;34.90;;;25.65;;
21237;SDS011;10777;50.828;3.264;2022-07-09T05:18:50;38.10;;;25.65;;
21237;SDS011;10777;50.828;3.264;2022-07-09T05:21:16;34.92;;;25.77;;
21237;SDS011;10777;50.828;3.264;2022-07-09T05:23:41;39.17;;;24.67;;
21237;SDS011;10777;50.828;3.264;2022-07-09T05:26:07;34.33;;;24.70;;
21237;SDS011;10777;50.828;3.264;2022-07-09T05:28:33;36.90;;;24.33;;
21237;SDS011;10777;50.828;3.264;2022-07-09T05:30:58;35.08;;;23.75;;
21237;SDS011;10777;50.828;3.264;2022-07-09T05:33:24;35.88;;;23.60;;
21237;SDS011;10777;50.828;3.264;2022-07-09T05:35:50;36.20;;;24.08;;
21237;SDS011;10777;50.828;3.264;2022-07-09T05:38:15;34.15;;;23.48;;
21237;SDS011;10777;50.828;3.264;2022-07-09T05:40:41;32.50;;;23.23;;
21237;SDS011;10777;50.828;3.264;2022-07-09T05:43:07;31.75;;;23.60;;
21237;SDS011;10777;50.828;3.264;2022-07-09T05:45:33;34.05;;;22.40;;
21237;SDS011;10777;50.828;3.264;2022-07-09T05:47:58;33.15;;;23.30;;
21237;SDS011;10777;50.828;3.264;2022-07-09T05:50:24;31.42;;;21.60;;
21237;SDS011;10777;50.828;3.264;2022-07-09T05:52:50;29.42;;;22.58;;
21237;SDS011;10777;50.828;3.264;2022-07-09T05:55:15;30.40;;;21.52;;
21237;SDS011;10777;50.828;3.264;2022-07-09T05:57:41;33.03;;;21.00;;
21237;SDS011;10777;50.828;3.264;2022-07-09T06:00:07;32.70;;;20.95;;
21237;SDS011;10777;50.828;3.264;2022-07-09T06:02:33;26.73;;;21.02;;
21237;SDS011;10777;50.828;3.264;2022-07-09T06:04:59;35.97;;;21.38;;
21237;SDS011;10777;50.828;3.264;2022-07-09T06:07:24;29.38;;;20.85;;
21237;SDS011;10777;50.828;3.264;2022-07-09T06:09:50;29.80;;;21.30;;
21237;SDS011;10777;50.828;3.264;2022-07-09T06:12:16;24.75;;;20.02;;
21237;SDS011;10777;50.828;3.264;2022-07-09T06:14:41;32.40;;;20.73;;
21237;SDS011;10777;50.828;3.264;2022-07-09T06:17:07;27.05;;;20.33;;
21237;SDS011;10777;50.828;3.264;2022-07-09T06:19:33;28.25;;;19.40;;
21237;SDS011;10777;50.828;3.264;2022-07-09T06:22:00;29.73;;;19.48;;
21237;SDS011;10777;50.828;3.264;2022-07-09T06:24:25;28.10;;;18.52;;
21237;SDS011;10777;50.828;3.264;2022-07-09T06:26:51;29.02;;;19.02;;
21237;SDS011;10777;50.828;3.264;2022-07-09T06:29:17;25.67;;;18.75;;
21237;SDS011;10777;50.828;3.264;2022-07-09T06:31:43;24.20;;;17.90;;
21237;SDS011;10777;50.828;3.264;2022-07-09T06:34:08;30.90;;;18.02;;
21237;SDS011;10777;50.828;3.264;2022-07-09T06:36:35;26.17;;;18.48;;
21237;SDS011;10777;50.828;3.264;2022-07-09T06:39:01;25.52;;;17.60;;
21237;SDS011;10777;50.828;3.264;2022-07-09T06:41:46;23.83;;;17.90;;
21237;SDS011;10777;50.828;3.264;2022-07-09T06:44:12;29.33;;;18.13;;
21237;SDS011;10777;50.828;3.264;2022-07-09T06:46:38;25.60;;;17.90;;
21237;SDS011;10777;50.828;3.264;2022-07-09T06:49:04;26.92;;;17.83;;
21237;SDS011;10777;50.828;3.264;2022-07-09T06:51:30;22.67;;;18.42;;
21237;SDS011;10777;50.828;3.264;2022-07-09T06:53:55;28.85;;;17.52;;
21237;SDS011;10777;50.828;3.264;2022-07-09T06:56:22;27.00;;;16.92;;
21237;SDS011;10777;50.828;3.264;2022-07-09T06:58:48;27.25;;;18.15;;
21237;SDS011;10777;50.828;3.264;2022-07-09T07:01:13;27.88;;;19.05;;
21237;SDS011;10777;50.828;3.264;2022-07-09T07:03:39;28.65;;;17.98;;
21237;SDS011;10777;50.828;3.264;2022-07-09T07:06:05;27.05;;;17.55;;
21237;SDS011;10777;50.828;3.264;2022-07-09T07:08:31;29.48;;;18.40;;
21237;SDS011;10777;50.828;3.264;2022-07-09T07:10:57;27.98;;;17.02;;
21237;SDS011;10777;50.828;3.264;2022-07-09T07:13:22;26.75;;;18.58;;
21237;SDS011;10777;50.828;3.264;2022-07-09T07:15:48;25.10;;;15.73;;
21237;SDS011;10777;50.828;3.264;2022-07-09T07:18:15;27.35;;;18.90;;
21237;SDS011;10777;50.828;3.264;2022-07-09T07:20:41;25.58;;;18.00;;
21237;SDS011;10777;50.828;3.264;2022-07-09T07:23:08;24.95;;;18.15;;
21237;SDS011;10777;50.828;3.264;2022-07-09T07:25:34;26.23;;;19.27;;
21237;SDS011;10777;50.828;3.264;2022-07-09T07:27:59;26.73;;;17.70;;
21237;SDS011;10777;50.828;3.264;2022-07-09T07:30:26;24.40;;;18.55;;
21237;SDS011;10777;50.828;3.264;2022-07-09T07:32:52;28.27;;;19.10;;
21237;SDS011;10777;50.828;3.264;2022-07-09T07:35:18;25.33;;;17.50;;
21237;SDS011;10777;50.828;3.264;2022-07-09T07:37:43;27.60;;;19.15;;
21237;SDS011;10777;50.828;3.264;2022-07-09T07:40:09;27.10;;;19.15;;
21237;SDS011;10777;50.828;3.264;2022-07-09T07:42:35;24.75;;;18.15;;
21237;SDS011;10777;50.828;3.264;2022-07-09T07:45:01;27.35;;;18.80;;
21237;SDS011;10777;50.828;3.264;2022-07-09T07:47:27;30.48;;;18.17;;
21237;SDS011;10777;50.828;3.264;2022-07-09T07:49:52;25.23;;;17.80;;
21237;SDS011;10777;50.828;3.264;2022-07-09T07:52:19;27.13;;;19.10;;
21237;SDS011;10777;50.828;3.264;2022-07-09T07:54:45;33.40;;;20.85;;
21237;SDS011;10777;50.828;3.264;2022-07-09T07:57:11;30.17;;;20.02;;
21237;SDS011;10777;50.828;3.264;2022-07-09T07:59:37;31.95;;;20.98;;
21237;SDS011;10777;50.828;3.264;2022-07-09T08:02:02;31.55;;;20.00;;
21237;SDS011;10777;50.828;3.264;2022-07-09T08:04:28;36.25;;;23.40;;
21237;SDS011;10777;50.828;3.264;2022-07-09T08:06:54;31.02;;;21.30;;
21237;SDS011;10777;50.828;3.264;2022-07-09T08:09:20;33.72;;;22.63;;
21237;SDS011;10777;50.828;3.264;2022-07-09T08:11:46;32.28;;;23.42;;
21237;SDS011;10777;50.828;3.264;2022-07-09T08:14:11;29.42;;;21.60;;
21237;SDS011;10777;50.828;3.264;2022-07-09T08:16:37;30.80;;;19.73;;
21237;SDS011;10777;50.828;3.264;2022-07-09T08:19:05;30.75;;;20.17;;
21237;SDS011;10777;50.828;3.264;2022-07-09T08:21:31;25.67;;;17.38;;
21237;SDS011;10777;50.828;3.264;2022-07-09T08:23:57;26.75;;;18.50;;
21237;SDS011;10777;50.828;3.264;2022-07-09T08:26:25;31.50;;;18.58;;
21237;SDS011;10777;50.828;3.264;2022-07-09T08:28:53;26.25;;;19.25;;
21237;SDS011;10777;50.828;3.264;2022-07-09T08:31:19;32.28;;;19.75;;
21237;SDS011;10777;50.828;3.264;2022-07-09T08:33:46;33.90;;;20.00;;
21237;SDS011;10777;50.828;3.264;2022-07-09T08:36:12;28.40;;;18.85;;
21237;SDS011;10777;50.828;3.264;2022-07-09T08:38:38;32.83;;;19.98;;
21237;SDS011;10777;50.828;3.264;2022-07-09T08:41:04;32.70;;;17.00;;
21237;SDS011;10777;50.828;3.264;2022-07-09T08:43:32;26.30;;;17.80;;
21237;SDS011;10777;50.828;3.264;2022-07-09T08:45:59;33.55;;;18.15;;
21237;SDS011;10777;50.828;3.264;2022-07-09T08:48:25;21.60;;;16.13;;
21237;SDS011;10777;50.828;3.264;2022-07-09T08:50:51;24.10;;;16.48;;
21237;SDS011;10777;50.828;3.264;2022-07-09T08:53:17;25.75;;;15.18;;
21237;SDS011;10777;50.828;3.264;2022-07-09T08:55:45;24.30;;;14.82;;
21237;SDS011;10777;50.828;3.264;2022-07-09T08:58:11;25.48;;;12.75;;
21237;SDS011;10777;50.828;3.264;2022-07-09T09:00:38;18.52;;;11.25;;
21237;SDS011;10777;50.828;3.264;2022-07-09T09:03:05;15.63;;;10.93;;
21237;SDS011;10777;50.828;3.264;2022-07-09T09:05:31;20.75;;;10.48;;
21237;SDS011;10777;50.828;3.264;2022-07-09T09:07:57;12.93;;;7.40;;
21237;SDS011;10777;50.828;3.264;2022-07-09T09:10:24;10.82;;;7.25;;
21237;SDS011;10777;50.828;3.264;2022-07-09T09:12:58;18.27;;;6.63;;
21237;SDS011;10777;50.828;3.264;2022-07-09T09:15:26;12.38;;;6.03;;
21237;SDS011;10777;50.828;3.264;2022-07-09T09:17:52;10.88;;;4.55;;
21237;SDS011;10777;50.828;3.264;2022-07-09T09:20:18;13.45;;;4.25;;
21237;SDS011;10777;50.828;3.264;2022-07-09T09:22:46;10.40;;;3.60;;
21237;SDS011;10777;50.828;3.264;2022-07-09T09:25:16;5.05;;;3.72;;
21237;SDS011;10777;50.828;3.264;2022-07-09T09:27:53;7.10;;;3.10;;
21237;SDS011;10777;50.828;3.264;2022-07-09T09:30:19;8.13;;;3.05;;
21237;SDS011;10777;50.828;3.264;2022-07-09T09:33:02;8.48;;;3.08;;
21237;SDS011;10777;50.828;3.264;2022-07-09T09:35:29;10.63;;;3.88;;
21237;SDS011;10777;50.828;3.264;2022-07-09T09:37:58;4.00;;;2.30;;
21237;SDS011;10777;50.828;3.264;2022-07-09T09:40:24;4.70;;;2.20;;
21237;SDS011;10777;50.828;3.264;2022-07-09T09:42:50;6.85;;;2.10;;
21237;SDS011;10777;50.828;3.264;2022-07-09T09:45:17;4.45;;;1.65;;
21237;SDS011;10777;50.828;3.264;2022-07-09T09:47:45;13.60;;;8.88;;
21237;SDS011;10777;50.828;3.264;2022-07-09T09:50:16;6.38;;;2.13;;
21237;SDS011;10777;50.828;3.264;2022-07-09T09:52:45;6.68;;;2.00;;
21237;SDS011;10777;50.828;3.264;2022-07-09T09:55:13;7.57;;;3.03;;
21237;SDS011;10777;50.828;3.264;2022-07-09T09:57:39;6.55;;;1.73;;
21237;SDS011;10777;50.828;3.264;2022-07-09T10:00:06;7.68;;;2.25;;
21237;SDS011;10777;50.828;3.264;2022-07-09T10:02:33;3.15;;;2.05;;
21237;SDS011;10777;50.828;3.264;2022-07-09T10:05:00;8.13;;;1.73;;
21237;SDS011;10777;50.828;3.264;2022-07-09T10:07:26;5.18;;;1.40;;
21237;SDS011;10777;50.828;3.264;2022-07-09T10:09:53;3.28;;;1.50;;
21237;SDS011;10777;50.828;3.264;2022-07-09T10:12:27;5.63;;;1.58;;
21237;SDS011;10777;50.828;3.264;2022-07-09T10:14:54;4.63;;;1.40;;
21237;SDS011;10777;50.828;3.264;2022-07-09T10:17:21;3.83;;;1.60;;
21237;SDS011;10777;50.828;3.264;2022-07-09T10:19:56;7.03;;;1.80;;
21237;SDS011;10777;50.828;3.264;2022-07-09T10:22:34;5.18;;;1.58;;
21237;SDS011;10777;50.828;3.264;2022-07-09T10:25:03;7.78;;;1.98;;
21237;SDS011;10777;50.828;3.264;2022-07-09T10:27:29;3.72;;;1.60;;
21237;SDS011;10777;50.828;3.264;2022-07-09T10:30:08;5.13;;;1.67;;
21237;SDS011;10777;50.828;3.264;2022-07-09T10:32:46;3.35;;;1.50;;
21237;SDS011;10777;50.828;3.264;2022-07-09T10:35:38;4.25;;;1.52;;
21237;SDS011;10777;50.828;3.264;2022-07-09T10:38:09;2.80;;;1.52;;
21237;SDS011;10777;50.828;3.264;2022-07-09T10:40:40;3.03;;;1.10;;
21237;SDS011;10777;50.828;3.264;2022-07-09T10:43:07;6.82;;;1.42;;
21237;SDS011;10777;50.828;3.264;2022-07-09T10:45:39;4.50;;;1.30;;
21237;SDS011;10777;50.828;3.264;2022-07-09T10:48:06;4.25;;;1.27;;
21237;SDS011;10777;50.828;3.264;2022-07-09T10:50:37;5.65;;;1.67;;
21237;SDS011;10777;50.828;3.264;2022-07-09T10:53:05;2.90;;;1.30;;
21237;SDS011;10777;50.828;3.264;2022-07-09T10:55:31;5.40;;;1.70;;
21237;SDS011;10777;50.828;3.264;2022-07-09T10:57:57;5.07;;;0.90;;
21237;SDS011;10777;50.828;3.264;2022-07-09T11:00:24;4.93;;;1.80;;
21237;SDS011;10777;50.828;3.264;2022-07-09T11:02:52;2.85;;;1.27;;
21237;SDS011;10777;50.828;3.264;2022-07-09T11:05:23;3.63;;;1.17;;
21237;SDS011;10777;50.828;3.264;2022-07-09T11:07:57;4.18;;;1.92;;
21237;SDS011;10777;50.828;3.264;2022-07-09T11:10:32;2.63;;;1.63;;
21237;SDS011;10777;50.828;3.264;2022-07-09T11:13:03;6.05;;;1.42;;
21237;SDS011;10777;50.828;3.264;2022-07-09T11:15:31;2.38;;;1.17;;
21237;SDS011;10777;50.828;3.264;2022-07-09T11:18:01;3.00;;;1.40;;
21237;SDS011;10777;50.828;3.264;2022-07-09T11:20:29;3.13;;;1.45;;
21237;SDS011;10777;50.828;3.264;2022-07-09T11:22:57;4.00;;;2.05;;
21237;SDS011;10777;50.828;3.264;2022-07-09T11:25:25;6.35;;;1.80;;
21237;SDS011;10777;50.828;3.264;2022-07-09T11:27:53;7.40;;;1.30;;
21237;SDS011;10777;50.828;3.264;2022-07-09T11:30:19;2.75;;;1.52;;
21237;SDS011;10777;50.828;3.264;2022-07-09T11:32:45;3.75;;;0.93;;
21237;SDS011;10777;50.828;3.264;2022-07-09T11:35:12;6.40;;;1.40;;
21237;SDS011;10777;50.828;3.264;2022-07-09T11:37:48;5.25;;;1.40;;
21237;SDS011;10777;50.828;3.264;2022-07-09T11:40:15;4.07;;;1.50;;
21237;SDS011;10777;50.828;3.264;2022-07-09T11:42:44;2.42;;;1.30;;
21237;SDS011;10777;50.828;3.264;2022-07-09T11:45:11;2.53;;;1.33;;
21237;SDS011;10777;50.828;3.264;2022-07-09T11:47:37;7.78;;;4.63;;
21237;SDS011;10777;50.828;3.264;2022-07-09T11:50:12;2.78;;;1.63;;
21237;SDS011;10777;50.828;3.264;2022-07-09T11:52:43;3.17;;;1.83;;
21237;SDS011;10777;50.828;3.264;2022-07-09T11:55:11;5.93;;;2.53;;
21237;SDS011;10777;50.828;3.264;2022-07-09T11:57:39;3.22;;;1.60;;
21237;SDS011;10777;50.828;3.264;2022-07-09T12:00:26;4.85;;;1.35;;
21237;SDS011;10777;50.828;3.264;2022-07-09T12:02:54;3.85;;;1.35;;
21237;SDS011;10777;50.828;3.264;2022-07-09T12:05:24;4.05;;;1.70;;
21237;SDS011;10777;50.828;3.264;2022-07-09T12:07:58;5.93;;;2.97;;
21237;SDS011;10777;50.828;3.264;2022-07-09T12:10:26;4.75;;;1.15;;
21237;SDS011;10777;50.828;3.264;2022-07-09T12:12:54;1.45;;;1.25;;
21237;SDS011;10777;50.828;3.264;2022-07-09T12:15:21;4.45;;;1.33;;
21237;SDS011;10777;50.828;3.264;2022-07-09T12:17:52;5.93;;;1.50;;
21237;SDS011;10777;50.828;3.264;2022-07-09T12:20:20;1.73;;;1.13;;
21237;SDS011;10777;50.828;3.264;2022-07-09T12:22:47;7.70;;;4.10;;
21237;SDS011;10777;50.828;3.264;2022-07-09T12:25:12;3.47;;;1.30;;
21237;SDS011;10777;50.828;3.264;2022-07-09T12:27:38;2.55;;;1.50;;
21237;SDS011;10777;50.828;3.264;2022-07-09T12:30:05;3.22;;;0.70;;
21237;SDS011;10777;50.828;3.264;2022-07-09T12:32:31;4.28;;;1.52;;
21237;SDS011;10777;50.828;3.264;2022-07-09T12:34:57;2.53;;;1.23;;
21237;SDS011;10777;50.828;3.264;2022-07-09T12:37:23;9.93;;;0.88;;
21237;SDS011;10777;50.828;3.264;2022-07-09T12:39:48;4.50;;;1.23;;
21237;SDS011;10777;50.828;3.264;2022-07-09T12:42:14;2.25;;;1.00;;
21237;SDS011;10777;50.828;3.264;2022-07-09T12:44:40;3.10;;;1.23;;
21237;SDS011;10777;50.828;3.264;2022-07-09T12:47:06;2.70;;;0.90;;
21237;SDS011;10777;50.828;3.264;2022-07-09T12:49:31;2.35;;;0.60;;
21237;SDS011;10777;50.828;3.264;2022-07-09T12:51:57;8.75;;;0.98;;
21237;SDS011;10777;50.828;3.264;2022-07-09T12:54:23;5.50;;;0.93;;
21237;SDS011;10777;50.828;3.264;2022-07-09T12:56:49;3.95;;;0.80;;
21237;SDS011;10777;50.828;3.264;2022-07-09T12:59:16;1.60;;;0.85;;
21237;SDS011;10777;50.828;3.264;2022-07-09T13:01:44;2.70;;;1.10;;
21237;SDS011;10777;50.828;3.264;2022-07-09T13:04:10;1.00;;;0.80;;
21237;SDS011;10777;50.828;3.264;2022-07-09T13:06:35;2.97;;;1.10;;
21237;SDS011;10777;50.828;3.264;2022-07-09T13:09:02;4.00;;;1.00;;
21237;SDS011;10777;50.828;3.264;2022-07-09T13:11:29;2.97;;;0.90;;
21237;SDS011;10777;50.828;3.264;2022-07-09T13:13:55;2.85;;;0.93;;
21237;SDS011;10777;50.828;3.264;2022-07-09T13:16:21;2.97;;;1.23;;
21237;SDS011;10777;50.828;3.264;2022-07-09T13:18:47;10.48;;;1.70;;
21237;SDS011;10777;50.828;3.264;2022-07-09T13:21:14;2.67;;;1.08;;
21237;SDS011;10777;50.828;3.264;2022-07-09T13:23:40;2.78;;;1.23;;
21237;SDS011;10777;50.828;3.264;2022-07-09T13:26:06;1.92;;;1.23;;
21237;SDS011;10777;50.828;3.264;2022-07-09T13:28:32;1.75;;;0.70;;
21237;SDS011;10777;50.828;3.264;2022-07-09T13:30:58;3.00;;;1.02;;
21237;SDS011;10777;50.828;3.264;2022-07-09T13:33:24;1.50;;;0.93;;
21237;SDS011;10777;50.828;3.264;2022-07-09T13:35:49;3.50;;;0.73;;
21237;SDS011;10777;50.828;3.264;2022-07-09T13:38:15;4.65;;;2.08;;
21237;SDS011;10777;50.828;3.264;2022-07-09T13:40:41;2.35;;;0.95;;
21237;SDS011;10777;50.828;3.264;2022-07-09T13:43:07;2.67;;;0.82;;
21237;SDS011;10777;50.828;3.264;2022-07-09T13:45:32;1.80;;;0.82;;
21237;SDS011;10777;50.828;3.264;2022-07-09T13:47:58;1.67;;;0.70;;
21237;SDS011;10777;50.828;3.264;2022-07-09T13:50:24;6.63;;;1.50;;
21237;SDS011;10777;50.828;3.264;2022-07-09T13:52:50;4.45;;;1.00;;
21237;SDS011;10777;50.828;3.264;2022-07-09T13:55:15;1.92;;;0.80;;
21237;SDS011;10777;50.828;3.264;2022-07-09T13:57:41;3.13;;;0.93;;
21237;SDS011;10777;50.828;3.264;2022-07-09T14:00:08;6.55;;;1.00;;
21237;SDS011;10777;50.828;3.264;2022-07-09T14:02:34;6.45;;;1.25;;
21237;SDS011;10777;50.828;3.264;2022-07-09T14:05:00;1.83;;;0.57;;
21237;SDS011;10777;50.828;3.264;2022-07-09T14:07:28;1.48;;;0.80;;
21237;SDS011;10777;50.828;3.264;2022-07-09T14:09:53;3.85;;;1.08;;
21237;SDS011;10777;50.828;3.264;2022-07-09T14:12:19;1.60;;;0.93;;
21237;SDS011;10777;50.828;3.264;2022-07-09T14:14:47;3.80;;;0.90;;
21237;SDS011;10777;50.828;3.264;2022-07-09T14:17:12;6.07;;;1.20;;
21237;SDS011;10777;50.828;3.264;2022-07-09T14:19:38;1.85;;;0.73;;
21237;SDS011;10777;50.828;3.264;2022-07-09T14:22:04;3.78;;;0.98;;
21237;SDS011;10777;50.828;3.264;2022-07-09T14:24:31;4.68;;;1.50;;
21237;SDS011;10777;50.828;3.264;2022-07-09T14:26:59;4.13;;;0.85;;